createdAt,value
2022-07-27T00:01:02.638Z,101303.88
2022-07-27T00:03:31.666Z,101304.22
2022-07-27T00:05:58.431Z,101302.41
2022-07-27T00:08:25.422Z,101310.59
2022-07-27T00:10:55.593Z,101307.59
2022-07-27T00:13:22.349Z,101303.19
2022-07-27T00:15:49.199Z,101309.75
2022-07-27T00:18:16.004Z,101317.09
2022-07-27T00:20:42.851Z,101310.38
2022-07-27T00:23:10.267Z,101313.34
2022-07-27T00:25:37.017Z,101318.16
2022-07-27T00:28:04.006Z,101306.78
2022-07-27T00:30:30.789Z,101308.59
2022-07-27T00:32:57.616Z,101303.66
2022-07-27T00:35:25.517Z,101301.13
2022-07-27T00:37:52.333Z,101302.75
2022-07-27T00:40:19.060Z,101300.41
2022-07-27T00:42:45.841Z,101306.88
2022-07-27T00:45:12.563Z,101303.75
2022-07-27T00:47:39.353Z,101301.22
2022-07-27T00:50:06.803Z,101303.22
2022-07-27T00:52:34.341Z,101302.44
2022-07-27T00:55:01.367Z,101305.69
2022-07-27T00:57:28.405Z,101299.97
2022-07-27T00:59:55.124Z,101312.06
2022-07-27T01:02:23.032Z,101305.34
2022-07-27T01:04:53.598Z,101312.03
2022-07-27T01:07:21.823Z,101310.53
2022-07-27T01:09:56.712Z,101316.28
2022-07-27T01:12:27.761Z,101328.28
2022-07-27T01:14:55.673Z,101323.06
2022-07-27T01:17:22.916Z,101317.06
2022-07-27T01:19:50.150Z,101322.97
2022-07-27T01:22:16.874Z,101323.84
2022-07-27T01:24:43.651Z,101324.34
2022-07-27T01:27:10.340Z,101330.25
2022-07-27T01:29:37.185Z,101335.16
2022-07-27T01:32:04.622Z,101329.16
2022-07-27T01:34:33.710Z,101328.84
2022-07-27T01:37:01.647Z,101324.78
2022-07-27T01:39:28.637Z,101338.34
2022-07-27T01:41:55.525Z,101334.06
2022-07-27T01:44:22.278Z,101323.22
2022-07-27T01:46:49.434Z,101331.03
2022-07-27T01:49:16.714Z,101327.63
2022-07-27T01:51:43.691Z,101327.88
2022-07-27T01:54:10.435Z,101332.34
2022-07-27T01:56:37.119Z,101326.06
2022-07-27T01:59:04.062Z,101329.00
2022-07-27T02:01:30.941Z,101322.81
2022-07-27T02:03:57.956Z,101322.28
2022-07-27T02:06:24.659Z,101328.47
2022-07-27T02:08:51.453Z,101324.72
2022-07-27T02:11:36.822Z,101323.78
2022-07-27T02:14:03.599Z,101332.19
2022-07-27T02:16:30.477Z,101338.63
2022-07-27T02:18:57.746Z,101341.50
2022-07-27T02:21:24.485Z,101340.16
2022-07-27T02:23:51.313Z,101342.28
2022-07-27T02:26:18.106Z,101338.66
2022-07-27T02:28:44.804Z,101342.34
2022-07-27T02:31:11.523Z,101348.13
2022-07-27T02:33:38.222Z,101350.03
2022-07-27T02:36:05.285Z,101346.69
2022-07-27T02:38:32.090Z,101337.81
2022-07-27T02:40:58.858Z,101346.00
2022-07-27T02:43:25.567Z,101340.88
2022-07-27T02:45:52.490Z,101341.09
2022-07-27T02:48:19.256Z,101339.69
2022-07-27T02:50:46.062Z,101340.66
2022-07-27T02:53:12.870Z,101337.28
2022-07-27T02:55:39.556Z,101341.00
2022-07-27T02:58:06.325Z,101342.91
2022-07-27T03:00:34.054Z,101337.59
2022-07-27T03:03:00.830Z,101340.50
2022-07-27T03:05:27.532Z,101345.09
2022-07-27T03:07:54.300Z,101341.72
2022-07-27T03:10:20.952Z,101345.44
2022-07-27T03:12:47.644Z,101344.72
2022-07-27T03:15:14.364Z,101343.16
2022-07-27T03:17:41.113Z,101346.94
2022-07-27T03:20:09.377Z,101351.25
2022-07-27T03:22:37.492Z,101349.50
2022-07-27T03:25:04.535Z,101348.66
2022-07-27T03:27:31.258Z,101347.75
2022-07-27T03:29:58.325Z,101354.03
2022-07-27T03:32:25.039Z,101353.19
2022-07-27T03:34:52.026Z,101358.38
2022-07-27T03:37:20.167Z,101370.16
2022-07-27T03:39:47.142Z,101362.72
2022-07-27T03:42:13.903Z,101364.41
2022-07-27T03:44:40.597Z,101350.94
2022-07-27T03:47:07.345Z,101358.09
2022-07-27T03:49:34.306Z,101366.00
2022-07-27T03:52:01.211Z,101361.00
2022-07-27T03:54:28.305Z,101356.84
2022-07-27T03:56:55.080Z,101361.06
2022-07-27T03:59:21.795Z,101359.91
2022-07-27T04:01:48.550Z,101355.63
2022-07-27T04:04:15.337Z,101364.34
2022-07-27T04:06:42.065Z,101365.00
2022-07-27T04:09:09.228Z,101354.44
2022-07-27T04:11:37.834Z,101358.88
2022-07-27T04:14:12.948Z,101355.34
2022-07-27T04:16:40.359Z,101353.28
2022-07-27T04:19:07.567Z,101348.88
2022-07-27T04:21:37.062Z,101349.16
2022-07-27T04:24:04.075Z,101351.63
2022-07-27T04:26:30.923Z,101347.97
2022-07-27T04:28:57.609Z,101348.72
2022-07-27T04:31:24.412Z,101344.47
2022-07-27T04:33:54.313Z,101345.94
2022-07-27T04:36:21.060Z,101353.00
2022-07-27T04:38:47.779Z,101340.50
2022-07-27T04:41:14.594Z,101349.44
2022-07-27T04:43:41.509Z,101341.31
2022-07-27T04:46:11.874Z,101347.09
2022-07-27T04:48:41.948Z,101343.13
2022-07-27T04:51:16.857Z,101340.66
2022-07-27T04:53:53.755Z,101341.97
2022-07-27T04:56:26.582Z,101339.63
2022-07-27T04:58:53.905Z,101348.81
2022-07-27T05:01:20.683Z,101344.03
2022-07-27T05:03:47.508Z,101351.25
2022-07-27T05:06:14.638Z,101362.31
2022-07-27T05:08:41.326Z,101359.38
2022-07-27T05:11:08.070Z,101355.66
2022-07-27T05:13:37.959Z,101349.75
2022-07-27T05:16:05.008Z,101352.06
2022-07-27T05:18:32.470Z,101360.47
2022-07-27T05:20:59.292Z,101365.75
2022-07-27T05:23:26.005Z,101367.97
2022-07-27T05:25:52.701Z,101367.72
2022-07-27T05:28:19.569Z,101377.34
2022-07-27T05:30:46.465Z,101379.19
2022-07-27T05:33:13.248Z,101379.09
2022-07-27T05:35:40.399Z,101387.34
2022-07-27T05:38:07.215Z,101393.97
2022-07-27T05:40:34.004Z,101394.78
2022-07-27T05:43:00.980Z,101399.16
2022-07-27T05:45:27.886Z,101398.03
2022-07-27T05:47:54.771Z,101399.22
2022-07-27T05:50:21.644Z,101400.09
2022-07-27T05:52:48.408Z,101406.41
2022-07-27T05:55:15.353Z,101409.53
2022-07-27T05:57:42.241Z,101408.00
2022-07-27T06:00:10.006Z,101405.75
2022-07-27T06:02:40.435Z,101406.91
2022-07-27T06:05:11.912Z,101407.56
2022-07-27T06:08:00.640Z,101416.94
2022-07-27T06:10:32.876Z,101407.16
2022-07-27T06:13:01.260Z,101405.94
2022-07-27T06:15:28.050Z,101404.00
2022-07-27T06:17:55.042Z,101399.78
2022-07-27T06:20:22.833Z,101400.97
2022-07-27T06:22:52.138Z,101398.56
2022-07-27T06:25:20.048Z,101405.38
2022-07-27T06:27:47.001Z,101398.44
2022-07-27T06:30:15.642Z,101397.84
2022-07-27T06:32:43.689Z,101395.88
2022-07-27T06:35:11.470Z,101408.78
2022-07-27T06:37:44.270Z,101405.28
2022-07-27T06:40:13.545Z,101408.09
2022-07-27T06:42:41.709Z,101400.97
2022-07-27T06:45:09.771Z,101408.78
2022-07-27T06:47:49.196Z,101412.63
2022-07-27T06:50:20.813Z,101419.38
2022-07-27T06:52:48.561Z,101412.81
2022-07-27T06:55:15.578Z,101415.53
2022-07-27T06:57:43.521Z,101419.84
2022-07-27T07:00:11.608Z,101424.38
2022-07-27T07:02:38.739Z,101420.63
2022-07-27T07:05:08.770Z,101415.53
2022-07-27T07:07:35.532Z,101415.13
2022-07-27T07:10:02.322Z,101417.28
2022-07-27T07:12:29.132Z,101413.22
2022-07-27T07:14:55.986Z,101415.63
2022-07-27T07:17:22.737Z,101414.38
2022-07-27T07:19:49.557Z,101409.72
2022-07-27T07:22:21.893Z,101418.28
2022-07-27T07:24:48.591Z,101411.91
2022-07-27T07:27:15.383Z,101412.47
2022-07-27T07:29:42.071Z,101425.09
2022-07-27T07:32:08.782Z,101422.31
2022-07-27T07:34:35.625Z,101425.78
2022-07-27T07:37:02.486Z,101431.22
2022-07-27T07:39:31.393Z,101428.34
2022-07-27T07:41:58.471Z,101420.84
2022-07-27T07:44:25.632Z,101424.34
2022-07-27T07:46:52.515Z,101417.84
2022-07-27T07:49:21.490Z,101418.47
2022-07-27T07:52:06.250Z,101427.16
2022-07-27T07:54:33.023Z,101419.91
2022-07-27T07:56:59.799Z,101423.16
2022-07-27T07:59:26.536Z,101416.88
2022-07-27T08:01:53.284Z,101420.31
2022-07-27T08:04:20.140Z,101416.19
2022-07-27T08:06:46.985Z,101426.09
2022-07-27T08:09:15.366Z,101420.53
2022-07-27T08:11:42.297Z,101428.38
2022-07-27T08:14:09.020Z,101431.22
2022-07-27T08:16:35.864Z,101432.06
2022-07-27T08:19:02.812Z,101433.50
2022-07-27T08:21:30.838Z,101437.69
2022-07-27T08:24:02.854Z,101447.94
2022-07-27T08:26:29.843Z,101432.56
2022-07-27T08:28:56.646Z,101427.91
2022-07-27T08:31:26.546Z,101438.63
2022-07-27T08:34:13.263Z,101449.03
2022-07-27T08:36:39.999Z,101452.50
2022-07-27T08:39:08.881Z,101444.84
2022-07-27T08:41:39.910Z,101447.53
2022-07-27T08:44:13.522Z,101451.34
2022-07-27T08:46:43.048Z,101448.78
2022-07-27T08:49:10.411Z,101446.59
2022-07-27T08:51:37.507Z,101443.03
2022-07-27T08:54:04.433Z,101443.94
2022-07-27T08:56:31.169Z,101446.22
2022-07-27T08:58:57.865Z,101438.53
2022-07-27T09:01:24.643Z,101444.28
2022-07-27T09:03:51.467Z,101442.66
2022-07-27T09:06:44.004Z,101446.25
2022-07-27T09:09:12.560Z,101443.28
2022-07-27T09:11:39.672Z,101453.19
2022-07-27T09:14:08.443Z,101444.88
2022-07-27T09:17:14.913Z,101447.34
2022-07-27T09:19:22.653Z,101445.84
2022-07-27T09:21:49.357Z,101455.41
2022-07-27T09:24:45.764Z,101447.41
2022-07-27T09:27:04.946Z,101438.16
2022-07-27T09:29:36.385Z,101445.56
2022-07-27T09:32:14.810Z,101454.25
2022-07-27T09:34:41.715Z,101443.91
2022-07-27T09:37:10.012Z,101444.75
2022-07-27T09:39:36.806Z,101451.97
2022-07-27T09:42:03.570Z,101446.63
2022-07-27T09:44:43.878Z,101448.94
2022-07-27T09:47:27.117Z,101447.56
2022-07-27T09:50:17.686Z,101443.34
2022-07-27T09:52:44.728Z,101442.81
2022-07-27T09:55:11.807Z,101444.13
2022-07-27T09:57:56.868Z,101444.78
2022-07-27T10:00:24.473Z,101447.28
2022-07-27T10:02:52.464Z,101442.94
2022-07-27T10:05:21.682Z,101450.66
2022-07-27T10:07:49.393Z,101445.44
2022-07-27T10:10:17.116Z,101460.22
2022-07-27T10:12:46.873Z,101443.81
2022-07-27T10:15:17.179Z,101446.28
2022-07-27T10:17:44.561Z,101441.53
2022-07-27T10:20:12.631Z,101446.50
2022-07-27T10:22:56.469Z,101443.16
2022-07-27T10:25:27.362Z,101434.25
2022-07-27T10:28:17.713Z,101434.88
2022-07-27T10:30:48.112Z,101438.16
2022-07-27T10:33:55.404Z,101440.13
2022-07-27T10:36:31.215Z,101431.09
2022-07-27T10:39:00.233Z,101435.75
2022-07-27T10:41:28.879Z,101438.41
2022-07-27T10:44:15.187Z,101434.06
2022-07-27T10:47:00.764Z,101431.72
2022-07-27T10:49:33.038Z,101428.00
2022-07-27T10:52:07.244Z,101434.75
2022-07-27T10:54:40.161Z,101442.28
2022-07-27T10:57:09.064Z,101430.97
2022-07-27T11:00:08.764Z,101435.34
2022-07-27T11:02:41.285Z,101424.00
2022-07-27T11:05:32.527Z,101433.13
2022-07-27T11:08:34.562Z,101427.88
2022-07-27T11:10:48.594Z,101417.66
2022-07-27T11:13:19.258Z,101415.59
2022-07-27T11:16:09.661Z,101426.69
2022-07-27T11:18:45.425Z,101420.50
2022-07-27T11:21:25.855Z,101414.03
2022-07-27T11:24:15.066Z,101409.63
2022-07-27T11:26:47.885Z,101413.03
2022-07-27T11:29:16.475Z,101419.63
2022-07-27T11:31:55.242Z,101421.78
2022-07-27T11:34:34.198Z,101421.47
2022-07-27T11:37:03.278Z,101415.38
2022-07-27T11:42:21.077Z,101415.25
2022-07-27T11:44:48.848Z,101417.75
2022-07-27T11:47:21.093Z,101418.41
2022-07-27T11:49:48.113Z,101414.41
2022-07-27T11:52:17.798Z,101419.44
2022-07-27T11:54:51.772Z,101414.78
2022-07-27T11:57:20.858Z,101422.28
2022-07-27T11:59:48.441Z,101415.59
2022-07-27T12:02:20.593Z,101421.75
2022-07-27T12:04:49.756Z,101411.03
2022-07-27T12:07:31.793Z,101410.63
2022-07-27T12:10:00.341Z,101404.38
2022-07-27T12:12:35.077Z,101407.50
2022-07-27T12:15:16.610Z,101403.13
2022-07-27T12:18:00.100Z,101402.09
2022-07-27T12:20:35.377Z,101402.38
2022-07-27T12:23:07.255Z,101393.88
2022-07-27T12:25:35.826Z,101399.19
2022-07-27T12:28:13.400Z,101398.88
2022-07-27T12:30:52.190Z,101404.69
2022-07-27T12:33:29.788Z,101388.44
2022-07-27T12:35:57.939Z,101395.28
2022-07-27T12:38:41.016Z,101397.16
2022-07-27T12:41:08.344Z,101393.75
2022-07-27T12:43:35.428Z,101395.28
2022-07-27T12:46:13.689Z,101395.44
2022-07-27T12:48:42.907Z,101392.50
2022-07-27T12:51:11.180Z,101397.94
2022-07-27T12:53:39.231Z,101399.81
2022-07-27T12:56:10.457Z,101391.19
2022-07-27T12:58:38.120Z,101392.06
2022-07-27T13:01:05.632Z,101391.28
2022-07-27T13:03:33.546Z,101398.00
2022-07-27T13:06:05.833Z,101401.00
2022-07-27T13:08:37.675Z,101399.47
2022-07-27T13:11:04.463Z,101397.38
2022-07-27T13:13:31.358Z,101405.78
2022-07-27T13:15:58.168Z,101404.03
2022-07-27T13:18:24.996Z,101398.47
2022-07-27T13:20:52.092Z,101400.84
2022-07-27T13:23:18.992Z,101404.66
2022-07-27T13:25:45.831Z,101394.66
2022-07-27T13:28:12.860Z,101396.00
2022-07-27T13:30:39.817Z,101400.38
2022-07-27T13:33:06.679Z,101394.22
2022-07-27T13:35:33.580Z,101394.09
2022-07-27T13:38:00.459Z,101395.44
2022-07-27T13:40:27.232Z,101391.47
2022-07-27T13:42:54.065Z,101397.25
2022-07-27T13:45:20.980Z,101396.53
2022-07-27T13:47:47.828Z,101392.25
2022-07-27T13:50:19.239Z,101392.44
2022-07-27T13:52:47.731Z,101394.81
2022-07-27T13:55:15.959Z,101393.56
2022-07-27T13:57:42.822Z,101399.91
2022-07-27T14:00:10.400Z,101394.09
2022-07-27T14:02:37.212Z,101393.22
2022-07-27T14:05:06.081Z,101398.28
2022-07-27T14:07:33.591Z,101400.41
2022-07-27T14:10:32.699Z,101411.44
2022-07-27T14:13:08.291Z,101393.56
2022-07-27T14:15:50.426Z,101383.41
2022-07-27T14:18:23.474Z,101395.69
2022-07-27T14:20:50.371Z,101389.38
2022-07-27T14:23:17.165Z,101389.53
2022-07-27T14:25:43.880Z,101391.13
2022-07-27T14:28:10.701Z,101392.06
2022-07-27T14:30:37.678Z,101392.94
2022-07-27T14:33:04.445Z,101386.63
2022-07-27T14:35:31.240Z,101384.31
2022-07-27T14:38:00.296Z,101387.53
2022-07-27T14:40:27.099Z,101386.03
2022-07-27T14:42:54.346Z,101390.59
2022-07-27T14:45:21.172Z,101396.41
2022-07-27T14:47:47.935Z,101399.50
2022-07-27T14:50:15.192Z,101383.53
2022-07-27T14:52:42.285Z,101387.38
2022-07-27T14:55:09.624Z,101391.38
2022-07-27T14:57:37.108Z,101390.25
2022-07-27T15:00:14.595Z,101391.34
2022-07-27T15:02:42.625Z,101391.06
2022-07-27T15:05:10.183Z,101393.31
2022-07-27T15:07:37.518Z,101396.56
2022-07-27T15:10:06.008Z,101386.41
2022-07-27T15:12:37.541Z,101391.75
2022-07-27T15:15:06.861Z,101396.69
2022-07-27T15:17:33.949Z,101391.50
2022-07-27T15:20:07.154Z,101388.50
2022-07-27T15:22:34.090Z,101392.47
2022-07-27T15:25:00.918Z,101376.72
2022-07-27T15:27:27.687Z,101388.59
2022-07-27T15:29:55.115Z,101398.50
2022-07-27T15:32:21.946Z,101397.50
2022-07-27T15:34:50.218Z,101393.19
2022-07-27T15:37:17.044Z,101395.13
2022-07-27T15:39:43.937Z,101396.50
2022-07-27T15:42:10.725Z,101392.19
2022-07-27T15:44:37.896Z,101400.38
2022-07-27T15:47:04.865Z,101386.47
2022-07-27T15:49:31.887Z,101390.56
2022-07-27T15:51:58.834Z,101399.81
2022-07-27T15:54:27.994Z,101390.81
2022-07-27T15:56:57.080Z,101387.31
2022-07-27T15:59:24.034Z,101388.31
2022-07-27T16:01:50.835Z,101380.03
2022-07-27T16:04:20.557Z,101384.47
2022-07-27T16:06:47.435Z,101385.22
2022-07-27T16:09:14.591Z,101377.16
2022-07-27T16:11:41.619Z,101379.66
2022-07-27T16:14:08.676Z,101383.69
2022-07-27T16:16:35.687Z,101369.06
2022-07-27T16:19:13.401Z,101366.75
2022-07-27T16:21:54.685Z,101365.41
2022-07-27T16:24:26.333Z,101361.53
2022-07-27T16:26:53.141Z,101364.41
2022-07-27T16:29:20.095Z,101364.50
2022-07-27T16:31:47.000Z,101357.00
2022-07-27T16:34:13.775Z,101365.69
2022-07-27T16:36:41.613Z,101364.44
2022-07-27T16:39:08.391Z,101358.91
2022-07-27T16:41:35.262Z,101356.19
2022-07-27T16:44:02.104Z,101353.16
2022-07-27T16:46:29.255Z,101349.84
2022-07-27T16:48:56.209Z,101353.06
2022-07-27T16:51:23.024Z,101351.16
2022-07-27T16:53:50.338Z,101345.56
2022-07-27T16:56:17.733Z,101351.41
2022-07-27T16:58:45.181Z,101346.22
2022-07-27T17:01:15.154Z,101353.16
2022-07-27T17:03:52.962Z,101344.72
2022-07-27T17:06:19.884Z,101352.28
2022-07-27T17:08:46.728Z,101347.09
2022-07-27T17:11:13.686Z,101346.44
2022-07-27T17:13:46.202Z,101345.34
2022-07-27T17:16:16.176Z,101346.34
2022-07-27T17:18:43.089Z,101348.88
2022-07-27T17:21:12.938Z,101352.06
2022-07-27T17:23:41.302Z,101355.97
2022-07-27T17:26:08.992Z,101349.03
2022-07-27T17:28:39.375Z,101344.91
2022-07-27T17:31:12.290Z,101349.81
2022-07-27T17:33:40.215Z,101342.66
2022-07-27T17:36:13.761Z,101347.53
2022-07-27T17:38:45.227Z,101348.53
2022-07-27T17:41:12.845Z,101345.53
2022-07-27T17:43:40.323Z,101349.19
2022-07-27T17:46:09.005Z,101343.56
2022-07-27T17:48:36.884Z,101349.09
2022-07-27T17:51:05.382Z,101350.09
2022-07-27T17:53:32.619Z,101341.56
2022-07-27T17:56:00.788Z,101341.75
2022-07-27T17:58:30.183Z,101342.97
2022-07-27T18:00:57.643Z,101347.53
2022-07-27T18:03:24.496Z,101353.16
2022-07-27T18:05:51.336Z,101344.81
2022-07-27T18:08:18.256Z,101352.41
2022-07-27T18:13:12.443Z,101351.25
2022-07-27T18:15:48.294Z,101358.38
2022-07-27T18:18:19.971Z,101364.56
2022-07-27T18:20:48.413Z,101359.22
2022-07-27T18:23:16.186Z,101367.47
2022-07-27T18:25:44.362Z,101363.03
2022-07-27T18:28:11.511Z,101361.63
2022-07-27T18:30:38.453Z,101367.47
2022-07-27T18:33:05.440Z,101363.34
2022-07-27T18:35:32.481Z,101365.41
2022-07-27T18:37:59.359Z,101363.88
2022-07-27T18:40:26.119Z,101366.25
2022-07-27T18:42:52.912Z,101361.59
2022-07-27T18:45:19.742Z,101370.03
2022-07-27T18:47:49.288Z,101369.59
2022-07-27T18:50:17.734Z,101373.81
2022-07-27T18:52:44.586Z,101379.59
2022-07-27T18:55:11.618Z,101376.53
2022-07-27T18:57:38.567Z,101380.06
2022-07-27T19:00:07.087Z,101388.78
2022-07-27T19:02:39.100Z,101391.72
2022-07-27T19:05:09.244Z,101393.97
2022-07-27T19:07:39.348Z,101400.06
2022-07-27T19:10:07.836Z,101402.81
2022-07-27T19:12:34.826Z,101393.81
2022-07-27T19:15:01.578Z,101397.94
2022-07-27T19:17:28.324Z,101402.22
2022-07-27T19:19:55.036Z,101408.09
2022-07-27T19:22:21.795Z,101406.16
2022-07-27T19:24:54.402Z,101419.00
2022-07-27T19:27:21.935Z,101418.53
2022-07-27T19:29:48.839Z,101410.09
2022-07-27T19:32:16.955Z,101414.50
2022-07-27T19:34:43.897Z,101418.34
2022-07-27T19:37:11.551Z,101415.81
2022-07-27T19:39:58.560Z,101416.72
2022-07-27T19:42:25.295Z,101426.44
2022-07-27T19:44:52.216Z,101429.66
2022-07-27T19:47:19.110Z,101439.59
2022-07-27T19:49:45.843Z,101438.47
2022-07-27T19:52:12.597Z,101449.13
2022-07-27T19:54:39.501Z,101444.41
2022-07-27T19:57:06.224Z,101457.13
2022-07-27T19:59:55.378Z,101458.88
2022-07-27T20:02:20.022Z,101459.91
2022-07-27T20:04:46.868Z,101457.53
2022-07-27T20:07:13.772Z,101462.50
2022-07-27T20:09:40.859Z,101469.13
2022-07-27T20:12:08.485Z,101466.31
2022-07-27T20:14:36.446Z,101474.69
2022-07-27T20:17:04.011Z,101469.66
2022-07-27T20:19:31.222Z,101468.97
2022-07-27T20:21:59.901Z,101475.41
2022-07-27T20:24:27.933Z,101481.66
2022-07-27T20:26:55.190Z,101476.44
2022-07-27T20:29:22.011Z,101481.84
2022-07-27T20:31:49.796Z,101490.88
2022-07-27T20:34:19.375Z,101491.75
2022-07-27T20:36:46.107Z,101488.09
2022-07-27T20:39:17.319Z,101486.53
2022-07-27T20:41:44.608Z,101498.91
2022-07-27T20:44:11.452Z,101491.06
2022-07-27T20:46:38.212Z,101494.94
2022-07-27T20:49:05.150Z,101497.72
2022-07-27T20:51:32.150Z,101492.47
2022-07-27T20:53:59.062Z,101493.44
2022-07-27T20:56:25.884Z,101501.00
2022-07-27T20:58:52.601Z,101489.56
2022-07-27T21:01:19.625Z,101496.81
2022-07-27T21:03:46.486Z,101493.66
2022-07-27T21:06:13.355Z,101504.03
2022-07-27T21:08:45.919Z,101505.94
2022-07-27T21:11:13.763Z,101504.56
2022-07-27T21:13:40.961Z,101513.84
2022-07-27T21:16:07.865Z,101515.94
2022-07-27T21:18:34.763Z,101517.03
2022-07-27T21:21:01.696Z,101518.22
2022-07-27T21:23:47.092Z,101521.22
2022-07-27T21:26:18.110Z,101521.38
2022-07-27T21:28:45.369Z,101518.19
2022-07-27T21:31:12.136Z,101522.84
2022-07-27T21:33:39.883Z,101533.03
2022-07-27T21:36:07.381Z,101524.22
2022-07-27T21:38:34.321Z,101526.31
2022-07-27T21:41:01.194Z,101523.97
2022-07-27T21:43:30.648Z,101537.53
2022-07-27T21:45:57.390Z,101536.97
2022-07-27T21:48:24.143Z,101538.75
2022-07-27T21:50:50.922Z,101541.91
2022-07-27T21:53:17.713Z,101542.09
2022-07-27T21:55:44.654Z,101548.38
2022-07-27T21:58:12.455Z,101549.38
2022-07-27T22:00:39.296Z,101548.94
2022-07-27T22:03:06.438Z,101553.63
2022-07-27T22:05:33.490Z,101547.56
2022-07-27T22:08:01.037Z,101550.25
2022-07-27T22:10:28.506Z,101552.38
2022-07-27T22:12:55.442Z,101552.56
2022-07-27T22:15:22.114Z,101559.25
2022-07-27T22:17:50.713Z,101559.38
2022-07-27T22:20:18.663Z,101562.25
2022-07-27T22:22:47.367Z,101559.81
2022-07-27T22:25:14.825Z,101555.59
2022-07-27T22:27:41.784Z,101557.50
2022-07-27T22:30:09.298Z,101559.44
2022-07-27T22:32:36.301Z,101562.41
2022-07-27T22:35:03.535Z,101559.09
2022-07-27T22:37:30.455Z,101562.84
2022-07-27T22:39:57.161Z,101564.00
2022-07-27T22:42:23.829Z,101567.75
2022-07-27T22:44:50.549Z,101571.50
2022-07-27T22:47:17.327Z,101573.41
2022-07-27T22:49:44.215Z,101566.31
2022-07-27T22:52:11.075Z,101572.72
2022-07-27T22:54:38.794Z,101567.66
2022-07-27T22:57:06.164Z,101569.59
2022-07-27T22:59:33.371Z,101570.56
2022-07-27T23:02:00.496Z,101576.09
2022-07-27T23:04:27.273Z,101574.56
2022-07-27T23:06:54.099Z,101583.56
2022-07-27T23:09:21.411Z,101581.06
2022-07-27T23:11:48.165Z,101574.94
2022-07-27T23:14:15.330Z,101581.31
2022-07-27T23:16:43.506Z,101575.25
2022-07-27T23:19:10.503Z,101585.19
2022-07-27T23:21:37.599Z,101579.06
2022-07-27T23:24:05.411Z,101581.09
2022-07-27T23:26:32.359Z,101574.91
2022-07-27T23:29:00.583Z,101578.56
2022-07-27T23:31:29.471Z,101574.19
2022-07-27T23:33:56.567Z,101578.75
2022-07-27T23:36:23.293Z,101578.91
2022-07-27T23:38:50.035Z,101583.59
2022-07-27T23:41:16.791Z,101586.25
2022-07-27T23:43:43.945Z,101585.50
2022-07-27T23:46:10.836Z,101591.78
2022-07-27T23:48:37.817Z,101599.09
2022-07-27T23:51:04.550Z,101591.22
2022-07-27T23:53:31.247Z,101594.88
2022-07-27T23:55:58.502Z,101599.63
2022-07-27T23:58:25.238Z,101602.34
